sensor_id;sensor_type;location;lat;lon;timestamp;temperature;humidity
38458;DHT22;24239;48.058;10.486;2023-02-01T00:01:24;2.20;99.90
38458;DHT22;24239;48.058;10.486;2023-02-01T00:03:50;2.30;99.90
38458;DHT22;24239;48.058;10.486;2023-02-01T00:06:16;2.30;99.90
38458;DHT22;24239;48.058;10.486;2023-02-01T00:08:44;2.30;99.90
38458;DHT22;24239;48.058;10.486;2023-02-01T00:11:10;2.20;99.90
38458;DHT22;24239;48.058;10.486;2023-02-01T00:13:37;2.30;99.90
38458;DHT22;24239;48.058;10.486;2023-02-01T00:18:32;2.30;99.90
38458;DHT22;24239;48.058;10.486;2023-02-01T00:20:58;2.30;99.90
38458;DHT22;24239;48.058;10.486;2023-02-01T00:23:23;2.30;99.90
38458;DHT22;24239;48.058;10.486;2023-02-01T00:25:49;2.20;99.90
38458;DHT22;24239;48.058;10.486;2023-02-01T00:28:15;2.30;99.90
38458;DHT22;24239;48.058;10.486;2023-02-01T00:30:40;2.20;99.90
38458;DHT22;24239;48.058;10.486;2023-02-01T00:33:06;2.20;99.90
38458;DHT22;24239;48.058;10.486;2023-02-01T00:35:33;2.10;99.90
38458;DHT22;24239;48.058;10.486;2023-02-01T00:37:59;2.20;99.90
38458;DHT22;24239;48.058;10.486;2023-02-01T00:40:25;2.10;99.90
38458;DHT22;24239;48.058;10.486;2023-02-01T00:42:51;2.30;99.90
38458;DHT22;24239;48.058;10.486;2023-02-01T00:45:17;2.00;99.90
38458;DHT22;24239;48.058;10.486;2023-02-01T00:47:43;1.80;99.90
38458;DHT22;24239;48.058;10.486;2023-02-01T00:50:09;1.70;99.90
38458;DHT22;24239;48.058;10.486;2023-02-01T00:52:35;1.70;99.90
38458;DHT22;24239;48.058;10.486;2023-02-01T00:55:00;1.60;99.90
38458;DHT22;24239;48.058;10.486;2023-02-01T00:57:26;1.70;99.90
38458;DHT22;24239;48.058;10.486;2023-02-01T00:59:52;1.60;99.90
38458;DHT22;24239;48.058;10.486;2023-02-01T01:02:18;1.60;99.90
38458;DHT22;24239;48.058;10.486;2023-02-01T01:04:43;1.60;99.90
38458;DHT22;24239;48.058;10.486;2023-02-01T01:07:09;1.50;99.90
38458;DHT22;24239;48.058;10.486;2023-02-01T01:09:35;1.50;99.90
38458;DHT22;24239;48.058;10.486;2023-02-01T01:12:01;1.50;99.90
38458;DHT22;24239;48.058;10.486;2023-02-01T01:14:29;1.40;99.90
38458;DHT22;24239;48.058;10.486;2023-02-01T01:16:55;1.40;99.90
38458;DHT22;24239;48.058;10.486;2023-02-01T01:19:21;1.40;99.90
38458;DHT22;24239;48.058;10.486;2023-02-01T01:21:47;1.50;99.90
38458;DHT22;24239;48.058;10.486;2023-02-01T01:24:12;1.50;99.90
38458;DHT22;24239;48.058;10.486;2023-02-01T01:26:41;1.50;99.90
38458;DHT22;24239;48.058;10.486;2023-02-01T01:29:08;1.30;99.90
38458;DHT22;24239;48.058;10.486;2023-02-01T01:31:34;1.60;99.90
38458;DHT22;24239;48.058;10.486;2023-02-01T01:34:08;1.50;99.90
38458;DHT22;24239;48.058;10.486;2023-02-01T01:36:34;1.50;99.90
38458;DHT22;24239;48.058;10.486;2023-02-01T01:39:00;1.50;99.90
38458;DHT22;24239;48.058;10.486;2023-02-01T01:41:28;1.50;99.90
38458;DHT22;24239;48.058;10.486;2023-02-01T01:46:26;1.50;99.90
38458;DHT22;24239;48.058;10.486;2023-02-01T01:48:54;1.50;99.90
38458;DHT22;24239;48.058;10.486;2023-02-01T01:51:22;1.50;99.90
38458;DHT22;24239;48.058;10.486;2023-02-01T01:53:50;1.50;99.90
38458;DHT22;24239;48.058;10.486;2023-02-01T01:56:18;1.70;99.90
38458;DHT22;24239;48.058;10.486;2023-02-01T01:58:44;1.60;99.90
38458;DHT22;24239;48.058;10.486;2023-02-01T02:01:10;1.70;99.90
38458;DHT22;24239;48.058;10.486;2023-02-01T02:03:39;1.60;99.90
38458;DHT22;24239;48.058;10.486;2023-02-01T02:06:11;1.80;99.90
38458;DHT22;24239;48.058;10.486;2023-02-01T02:08:39;1.70;99.90
38458;DHT22;24239;48.058;10.486;2023-02-01T02:11:05;1.70;99.90
38458;DHT22;24239;48.058;10.486;2023-02-01T02:13:31;1.60;99.90
38458;DHT22;24239;48.058;10.486;2023-02-01T02:16:12;1.80;99.90
38458;DHT22;24239;48.058;10.486;2023-02-01T02:21:23;1.70;99.90
38458;DHT22;24239;48.058;10.486;2023-02-01T02:26:38;1.70;99.90
38458;DHT22;24239;48.058;10.486;2023-02-01T02:31:46;1.90;99.90
38458;DHT22;24239;48.058;10.486;2023-02-01T02:36:45;1.90;99.90
38458;DHT22;24239;48.058;10.486;2023-02-01T02:47:45;1.80;99.90
38458;DHT22;24239;48.058;10.486;2023-02-01T02:53:16;1.80;99.90
38458;DHT22;24239;48.058;10.486;2023-02-01T02:56:02;1.90;99.90
38458;DHT22;24239;48.058;10.486;2023-02-01T02:58:47;1.90;99.90
38458;DHT22;24239;48.058;10.486;2023-02-01T03:01:32;1.90;99.90
38458;DHT22;24239;48.058;10.486;2023-02-01T03:04:16;1.80;99.90
38458;DHT22;24239;48.058;10.486;2023-02-01T03:06:49;1.80;99.90
38458;DHT22;24239;48.058;10.486;2023-02-01T03:09:20;1.90;99.90
38458;DHT22;24239;48.058;10.486;2023-02-01T03:11:46;1.90;99.90
38458;DHT22;24239;48.058;10.486;2023-02-01T03:14:31;1.80;99.90
38458;DHT22;24239;48.058;10.486;2023-02-01T03:17:00;1.90;99.90
38458;DHT22;24239;48.058;10.486;2023-02-01T03:21:59;2.00;99.90
38458;DHT22;24239;48.058;10.486;2023-02-01T03:27:05;2.00;99.90
38458;DHT22;24239;48.058;10.486;2023-02-01T03:29:38;1.90;99.90
38458;DHT22;24239;48.058;10.486;2023-02-01T03:32:06;2.00;99.90
38458;DHT22;24239;48.058;10.486;2023-02-01T03:34:34;2.00;99.90
38458;DHT22;24239;48.058;10.486;2023-02-01T03:37:02;2.10;99.90
38458;DHT22;24239;48.058;10.486;2023-02-01T03:39:34;2.00;99.90
38458;DHT22;24239;48.058;10.486;2023-02-01T03:42:05;2.00;99.90
38458;DHT22;24239;48.058;10.486;2023-02-01T03:44:46;1.90;99.90
38458;DHT22;24239;48.058;10.486;2023-02-01T03:49:40;2.10;99.90
38458;DHT22;24239;48.058;10.486;2023-02-01T03:52:09;2.00;99.90
38458;DHT22;24239;48.058;10.486;2023-02-01T03:54:36;2.10;99.90
38458;DHT22;24239;48.058;10.486;2023-02-01T03:57:05;2.00;99.90
38458;DHT22;24239;48.058;10.486;2023-02-01T03:59:32;1.90;99.90
38458;DHT22;24239;48.058;10.486;2023-02-01T04:01:57;2.10;99.90
38458;DHT22;24239;48.058;10.486;2023-02-01T04:04:26;1.90;99.90
38458;DHT22;24239;48.058;10.486;2023-02-01T04:06:52;2.10;99.90
38458;DHT22;24239;48.058;10.486;2023-02-01T04:09:17;2.10;99.90
38458;DHT22;24239;48.058;10.486;2023-02-01T04:11:43;1.90;99.90
38458;DHT22;24239;48.058;10.486;2023-02-01T04:14:09;2.00;99.90
38458;DHT22;24239;48.058;10.486;2023-02-01T04:16:35;2.00;99.90
38458;DHT22;24239;48.058;10.486;2023-02-01T04:19:01;2.00;99.90
38458;DHT22;24239;48.058;10.486;2023-02-01T04:21:28;2.00;99.90
38458;DHT22;24239;48.058;10.486;2023-02-01T04:23:54;1.90;99.90
38458;DHT22;24239;48.058;10.486;2023-02-01T04:26:20;2.00;99.90
38458;DHT22;24239;48.058;10.486;2023-02-01T04:28:46;2.00;99.90
38458;DHT22;24239;48.058;10.486;2023-02-01T04:31:16;2.10;99.90
38458;DHT22;24239;48.058;10.486;2023-02-01T04:33:42;2.10;99.90
38458;DHT22;24239;48.058;10.486;2023-02-01T04:36:08;2.10;99.90
38458;DHT22;24239;48.058;10.486;2023-02-01T04:38:34;2.00;99.90
38458;DHT22;24239;48.058;10.486;2023-02-01T04:41:00;2.00;99.90
38458;DHT22;24239;48.058;10.486;2023-02-01T04:43:26;1.80;99.90
38458;DHT22;24239;48.058;10.486;2023-02-01T04:45:52;2.00;99.90
38458;DHT22;24239;48.058;10.486;2023-02-01T04:48:18;2.10;99.90
38458;DHT22;24239;48.058;10.486;2023-02-01T04:50:44;2.10;99.90
38458;DHT22;24239;48.058;10.486;2023-02-01T04:53:16;2.10;99.90
38458;DHT22;24239;48.058;10.486;2023-02-01T04:55:42;2.10;99.90
38458;DHT22;24239;48.058;10.486;2023-02-01T04:58:09;2.10;99.90
38458;DHT22;24239;48.058;10.486;2023-02-01T05:00:34;2.10;99.90
38458;DHT22;24239;48.058;10.486;2023-02-01T05:03:00;2.10;99.90
38458;DHT22;24239;48.058;10.486;2023-02-01T05:05:26;2.10;99.90
38458;DHT22;24239;48.058;10.486;2023-02-01T05:07:55;2.10;99.90
38458;DHT22;24239;48.058;10.486;2023-02-01T05:10:20;2.40;99.90
38458;DHT22;24239;48.058;10.486;2023-02-01T05:12:46;2.00;99.90
38458;DHT22;24239;48.058;10.486;2023-02-01T05:15:30;2.00;99.90
38458;DHT22;24239;48.058;10.486;2023-02-01T05:17:58;2.10;99.90
38458;DHT22;24239;48.058;10.486;2023-02-01T05:20:24;2.20;99.90
38458;DHT22;24239;48.058;10.486;2023-02-01T05:22:50;2.00;99.90
38458;DHT22;24239;48.058;10.486;2023-02-01T05:25:15;2.10;99.90
38458;DHT22;24239;48.058;10.486;2023-02-01T05:27:41;2.00;99.90
38458;DHT22;24239;48.058;10.486;2023-02-01T05:30:07;1.90;99.90
38458;DHT22;24239;48.058;10.486;2023-02-01T05:32:33;2.00;99.90
38458;DHT22;24239;48.058;10.486;2023-02-01T05:34:59;2.00;99.90
38458;DHT22;24239;48.058;10.486;2023-02-01T05:37:25;2.10;99.90
38458;DHT22;24239;48.058;10.486;2023-02-01T05:39:53;2.10;99.90
38458;DHT22;24239;48.058;10.486;2023-02-01T05:42:19;2.10;99.90
38458;DHT22;24239;48.058;10.486;2023-02-01T05:44:45;2.10;99.90
38458;DHT22;24239;48.058;10.486;2023-02-01T05:47:11;2.00;99.90
38458;DHT22;24239;48.058;10.486;2023-02-01T05:49:38;2.10;99.90
38458;DHT22;24239;48.058;10.486;2023-02-01T05:52:04;2.10;99.90
38458;DHT22;24239;48.058;10.486;2023-02-01T05:54:29;2.20;99.90
38458;DHT22;24239;48.058;10.486;2023-02-01T05:56:58;2.20;99.90
38458;DHT22;24239;48.058;10.486;2023-02-01T05:59:27;2.20;99.90
38458;DHT22;24239;48.058;10.486;2023-02-01T06:01:52;2.20;99.90
38458;DHT22;24239;48.058;10.486;2023-02-01T06:04:18;2.20;99.90
38458;DHT22;24239;48.058;10.486;2023-02-01T06:06:44;2.10;99.90
38458;DHT22;24239;48.058;10.486;2023-02-01T06:09:09;2.10;99.90
38458;DHT22;24239;48.058;10.486;2023-02-01T06:11:35;2.20;99.90
38458;DHT22;24239;48.058;10.486;2023-02-01T06:14:01;2.20;99.90
38458;DHT22;24239;48.058;10.486;2023-02-01T06:16:26;2.20;99.90
38458;DHT22;24239;48.058;10.486;2023-02-01T06:18:52;2.10;99.90
38458;DHT22;24239;48.058;10.486;2023-02-01T06:21:19;2.20;99.90
38458;DHT22;24239;48.058;10.486;2023-02-01T06:23:52;2.20;99.90
38458;DHT22;24239;48.058;10.486;2023-02-01T06:26:18;2.10;99.90
38458;DHT22;24239;48.058;10.486;2023-02-01T06:28:44;2.10;99.90
38458;DHT22;24239;48.058;10.486;2023-02-01T06:31:10;2.10;99.90
38458;DHT22;24239;48.058;10.486;2023-02-01T06:33:36;2.10;99.90
38458;DHT22;24239;48.058;10.486;2023-02-01T06:36:03;2.00;99.90
38458;DHT22;24239;48.058;10.486;2023-02-01T06:38:29;2.00;99.90
38458;DHT22;24239;48.058;10.486;2023-02-01T06:40:56;2.00;99.90
38458;DHT22;24239;48.058;10.486;2023-02-01T06:43:22;2.10;99.90
38458;DHT22;24239;48.058;10.486;2023-02-01T06:45:49;2.10;99.90
38458;DHT22;24239;48.058;10.486;2023-02-01T06:48:15;2.10;99.90
38458;DHT22;24239;48.058;10.486;2023-02-01T06:50:41;2.10;99.90
38458;DHT22;24239;48.058;10.486;2023-02-01T06:53:06;2.10;99.90
38458;DHT22;24239;48.058;10.486;2023-02-01T06:55:32;2.10;99.90
38458;DHT22;24239;48.058;10.486;2023-02-01T06:57:58;2.00;99.90
38458;DHT22;24239;48.058;10.486;2023-02-01T07:00:24;2.10;99.90
38458;DHT22;24239;48.058;10.486;2023-02-01T07:02:50;2.00;99.90
38458;DHT22;24239;48.058;10.486;2023-02-01T07:05:16;2.20;99.90
38458;DHT22;24239;48.058;10.486;2023-02-01T07:07:41;2.10;99.90
38458;DHT22;24239;48.058;10.486;2023-02-01T07:10:07;2.10;99.90
38458;DHT22;24239;48.058;10.486;2023-02-01T07:12:33;2.10;99.90
38458;DHT22;24239;48.058;10.486;2023-02-01T07:14:59;2.30;99.90
38458;DHT22;24239;48.058;10.486;2023-02-01T07:17:27;2.20;99.90
38458;DHT22;24239;48.058;10.486;2023-02-01T07:19:55;2.20;99.90
38458;DHT22;24239;48.058;10.486;2023-02-01T07:22:20;2.20;99.90
38458;DHT22;24239;48.058;10.486;2023-02-01T07:24:46;2.20;99.90
38458;DHT22;24239;48.058;10.486;2023-02-01T07:27:12;2.20;99.90
38458;DHT22;24239;48.058;10.486;2023-02-01T07:29:38;2.30;99.90
38458;DHT22;24239;48.058;10.486;2023-02-01T07:32:03;2.20;99.90
38458;DHT22;24239;48.058;10.486;2023-02-01T07:34:29;2.30;99.90
38458;DHT22;24239;48.058;10.486;2023-02-01T07:36:56;2.40;99.90
38458;DHT22;24239;48.058;10.486;2023-02-01T07:39:22;2.30;99.90
38458;DHT22;24239;48.058;10.486;2023-02-01T07:41:47;2.30;99.90
38458;DHT22;24239;48.058;10.486;2023-02-01T07:44:13;2.30;99.90
38458;DHT22;24239;48.058;10.486;2023-02-01T07:46:39;2.40;99.90
38458;DHT22;24239;48.058;10.486;2023-02-01T07:49:05;2.40;99.90
38458;DHT22;24239;48.058;10.486;2023-02-01T07:51:30;2.30;99.90
38458;DHT22;24239;48.058;10.486;2023-02-01T07:53:59;2.30;99.90
38458;DHT22;24239;48.058;10.486;2023-02-01T07:56:25;2.30;99.90
38458;DHT22;24239;48.058;10.486;2023-02-01T07:58:51;2.40;99.90
38458;DHT22;24239;48.058;10.486;2023-02-01T08:01:21;2.30;99.90
38458;DHT22;24239;48.058;10.486;2023-02-01T08:03:50;2.30;99.90
38458;DHT22;24239;48.058;10.486;2023-02-01T08:06:16;2.40;99.90
38458;DHT22;24239;48.058;10.486;2023-02-01T08:08:42;2.40;99.90
38458;DHT22;24239;48.058;10.486;2023-02-01T08:11:10;2.50;99.90
38458;DHT22;24239;48.058;10.486;2023-02-01T08:13:36;2.60;99.90
38458;DHT22;24239;48.058;10.486;2023-02-01T08:16:03;2.80;99.90
38458;DHT22;24239;48.058;10.486;2023-02-01T08:18:29;2.70;99.90
38458;DHT22;24239;48.058;10.486;2023-02-01T08:20:55;2.60;99.90
38458;DHT22;24239;48.058;10.486;2023-02-01T08:23:21;2.70;99.90
38458;DHT22;24239;48.058;10.486;2023-02-01T08:25:46;2.50;99.90
38458;DHT22;24239;48.058;10.486;2023-02-01T08:28:12;2.80;99.90
38458;DHT22;24239;48.058;10.486;2023-02-01T08:30:38;2.60;99.90
38458;DHT22;24239;48.058;10.486;2023-02-01T08:33:04;2.70;99.90
38458;DHT22;24239;48.058;10.486;2023-02-01T08:35:32;2.60;99.90
38458;DHT22;24239;48.058;10.486;2023-02-01T08:37:58;2.60;99.90
38458;DHT22;24239;48.058;10.486;2023-02-01T08:40:24;2.60;99.90
38458;DHT22;24239;48.058;10.486;2023-02-01T08:42:52;2.60;99.90
38458;DHT22;24239;48.058;10.486;2023-02-01T08:45:20;2.70;99.90
38458;DHT22;24239;48.058;10.486;2023-02-01T08:47:54;2.70;99.90
38458;DHT22;24239;48.058;10.486;2023-02-01T08:50:20;2.80;99.90
38458;DHT22;24239;48.058;10.486;2023-02-01T08:52:46;2.90;99.90
38458;DHT22;24239;48.058;10.486;2023-02-01T08:55:12;2.80;99.90
38458;DHT22;24239;48.058;10.486;2023-02-01T08:57:38;2.90;99.90
38458;DHT22;24239;48.058;10.486;2023-02-01T09:00:05;3.00;99.90
38458;DHT22;24239;48.058;10.486;2023-02-01T09:02:31;3.10;99.90
38458;DHT22;24239;48.058;10.486;2023-02-01T09:05:03;3.20;99.90
38458;DHT22;24239;48.058;10.486;2023-02-01T09:07:29;3.10;99.90
38458;DHT22;24239;48.058;10.486;2023-02-01T09:09:55;3.10;99.90
38458;DHT22;24239;48.058;10.486;2023-02-01T09:12:24;3.10;99.90
38458;DHT22;24239;48.058;10.486;2023-02-01T09:14:50;3.00;99.90
38458;DHT22;24239;48.058;10.486;2023-02-01T09:17:16;2.90;99.90
38458;DHT22;24239;48.058;10.486;2023-02-01T09:19:41;3.00;99.90
38458;DHT22;24239;48.058;10.486;2023-02-01T09:22:07;3.00;99.90
38458;DHT22;24239;48.058;10.486;2023-02-01T09:24:33;2.90;99.90
38458;DHT22;24239;48.058;10.486;2023-02-01T09:26:59;2.80;99.90
38458;DHT22;24239;48.058;10.486;2023-02-01T09:29:25;3.00;99.90
38458;DHT22;24239;48.058;10.486;2023-02-01T09:31:55;3.00;99.90
38458;DHT22;24239;48.058;10.486;2023-02-01T09:34:21;3.10;99.90
38458;DHT22;24239;48.058;10.486;2023-02-01T09:36:47;3.30;99.90
38458;DHT22;24239;48.058;10.486;2023-02-01T09:39:12;3.30;99.90
38458;DHT22;24239;48.058;10.486;2023-02-01T09:46:47;3.40;99.90
38458;DHT22;24239;48.058;10.486;2023-02-01T09:49:16;3.30;99.90
38458;DHT22;24239;48.058;10.486;2023-02-01T09:51:44;3.30;99.90
38458;DHT22;24239;48.058;10.486;2023-02-01T09:54:13;3.40;99.90
38458;DHT22;24239;48.058;10.486;2023-02-01T09:56:51;3.30;99.90
38458;DHT22;24239;48.058;10.486;2023-02-01T10:01:57;3.50;99.90
38458;DHT22;24239;48.058;10.486;2023-02-01T10:04:24;3.50;99.90
38458;DHT22;24239;48.058;10.486;2023-02-01T10:20:00;3.50;99.90
38458;DHT22;24239;48.058;10.486;2023-02-01T10:22:35;3.70;99.90
38458;DHT22;24239;48.058;10.486;2023-02-01T10:25:25;3.70;99.90
38458;DHT22;24239;48.058;10.486;2023-02-01T10:27:52;3.70;99.90
38458;DHT22;24239;48.058;10.486;2023-02-01T10:32:47;3.80;99.90
38458;DHT22;24239;48.058;10.486;2023-02-01T10:35:15;3.70;99.90
38458;DHT22;24239;48.058;10.486;2023-02-01T10:37:42;3.60;99.90
38458;DHT22;24239;48.058;10.486;2023-02-01T10:40:14;3.80;99.90
38458;DHT22;24239;48.058;10.486;2023-02-01T10:42:40;3.90;99.90
38458;DHT22;24239;48.058;10.486;2023-02-01T10:45:06;3.80;99.90
38458;DHT22;24239;48.058;10.486;2023-02-01T10:47:32;3.90;99.90
38458;DHT22;24239;48.058;10.486;2023-02-01T10:52:36;3.70;99.90
38458;DHT22;24239;48.058;10.486;2023-02-01T10:57:55;3.60;99.90
38458;DHT22;24239;48.058;10.486;2023-02-01T11:00:24;3.80;99.90
38458;DHT22;24239;48.058;10.486;2023-02-01T11:02:50;3.70;99.90
38458;DHT22;24239;48.058;10.486;2023-02-01T11:05:17;3.80;99.90
38458;DHT22;24239;48.058;10.486;2023-02-01T11:07:48;3.80;99.90
38458;DHT22;24239;48.058;10.486;2023-02-01T11:12:59;3.90;99.90
38458;DHT22;24239;48.058;10.486;2023-02-01T11:15:27;4.20;99.90
38458;DHT22;24239;48.058;10.486;2023-02-01T11:17:52;4.20;99.90
38458;DHT22;24239;48.058;10.486;2023-02-01T11:22:56;4.50;99.90
38458;DHT22;24239;48.058;10.486;2023-02-01T11:25:22;4.40;99.90
38458;DHT22;24239;48.058;10.486;2023-02-01T11:27:49;4.60;99.90
38458;DHT22;24239;48.058;10.486;2023-02-01T11:30:16;4.40;99.90
38458;DHT22;24239;48.058;10.486;2023-02-01T11:32:44;4.40;99.90
38458;DHT22;24239;48.058;10.486;2023-02-01T11:35:13;4.50;99.90
38458;DHT22;24239;48.058;10.486;2023-02-01T11:37:41;4.60;99.90
38458;DHT22;24239;48.058;10.486;2023-02-01T11:45:28;4.70;99.90
38458;DHT22;24239;48.058;10.486;2023-02-01T11:47:54;4.50;99.90
38458;DHT22;24239;48.058;10.486;2023-02-01T11:50:28;4.30;99.90
38458;DHT22;24239;48.058;10.486;2023-02-01T11:53:00;4.20;99.90
38458;DHT22;24239;48.058;10.486;2023-02-01T11:58:22;4.10;99.90
38458;DHT22;24239;48.058;10.486;2023-02-01T12:16:22;3.60;99.90
38458;DHT22;24239;48.058;10.486;2023-02-01T12:31:33;3.60;99.90
38458;DHT22;24239;48.058;10.486;2023-02-01T12:36:47;3.80;99.90
38458;DHT22;24239;48.058;10.486;2023-02-01T12:44:28;3.80;99.90
38458;DHT22;24239;48.058;10.486;2023-02-01T12:46:57;3.80;99.90
38458;DHT22;24239;48.058;10.486;2023-02-01T12:49:28;3.70;99.90
38458;DHT22;24239;48.058;10.486;2023-02-01T12:52:00;3.90;99.90
38458;DHT22;24239;48.058;10.486;2023-02-01T12:54:31;3.80;99.90
38458;DHT22;24239;48.058;10.486;2023-02-01T12:57:01;3.90;99.90
38458;DHT22;24239;48.058;10.486;2023-02-01T12:59:33;3.80;99.90
38458;DHT22;24239;48.058;10.486;2023-02-01T13:04:53;3.80;99.90
38458;DHT22;24239;48.058;10.486;2023-02-01T13:07:22;3.80;99.90
38458;DHT22;24239;48.058;10.486;2023-02-01T13:10:02;3.70;99.90
38458;DHT22;24239;48.058;10.486;2023-02-01T13:12:36;3.80;99.90
38458;DHT22;24239;48.058;10.486;2023-02-01T13:15:05;3.70;99.90
38458;DHT22;24239;48.058;10.486;2023-02-01T13:17:35;3.80;99.90
38458;DHT22;24239;48.058;10.486;2023-02-01T13:22:54;3.70;99.90
38458;DHT22;24239;48.058;10.486;2023-02-01T13:25:37;3.70;99.90
38458;DHT22;24239;48.058;10.486;2023-02-01T13:28:06;3.60;99.90
38458;DHT22;24239;48.058;10.486;2023-02-01T13:35:51;3.70;99.90
38458;DHT22;24239;48.058;10.486;2023-02-01T13:43:24;3.70;99.90
38458;DHT22;24239;48.058;10.486;2023-02-01T13:45:52;3.80;99.90
38458;DHT22;24239;48.058;10.486;2023-02-01T13:48:21;3.90;99.90
38458;DHT22;24239;48.058;10.486;2023-02-01T13:50:50;3.80;99.90
38458;DHT22;24239;48.058;10.486;2023-02-01T13:53:18;3.80;99.90
38458;DHT22;24239;48.058;10.486;2023-02-01T13:55:46;3.70;99.90
38458;DHT22;24239;48.058;10.486;2023-02-01T13:58:21;3.60;99.90
38458;DHT22;24239;48.058;10.486;2023-02-01T14:00:47;3.60;99.90
38458;DHT22;24239;48.058;10.486;2023-02-01T14:12:49;3.60;99.90
38458;DHT22;24239;48.058;10.486;2023-02-01T14:17:43;3.50;99.90
38458;DHT22;24239;48.058;10.486;2023-02-01T14:20:38;3.50;99.90
38458;DHT22;24239;48.058;10.486;2023-02-01T14:23:04;3.40;99.90
38458;DHT22;24239;48.058;10.486;2023-02-01T14:25:34;3.30;99.90
38458;DHT22;24239;48.058;10.486;2023-02-01T14:28:09;3.20;99.90
38458;DHT22;24239;48.058;10.486;2023-02-01T14:30:36;3.30;99.90
38458;DHT22;24239;48.058;10.486;2023-02-01T14:33:11;3.20;99.90
38458;DHT22;24239;48.058;10.486;2023-02-01T14:35:39;3.40;99.90
38458;DHT22;24239;48.058;10.486;2023-02-01T14:38:05;3.20;99.90
38458;DHT22;24239;48.058;10.486;2023-02-01T14:40:32;3.20;99.90
38458;DHT22;24239;48.058;10.486;2023-02-01T14:43:01;3.20;99.90
38458;DHT22;24239;48.058;10.486;2023-02-01T14:55:44;2.30;99.90
38458;DHT22;24239;48.058;10.486;2023-02-01T14:58:14;2.20;99.90
38458;DHT22;24239;48.058;10.486;2023-02-01T15:00:47;2.10;99.90
38458;DHT22;24239;48.058;10.486;2023-02-01T15:05:45;2.00;99.90
38458;DHT22;24239;48.058;10.486;2023-02-01T15:08:21;2.10;99.90
38458;DHT22;24239;48.058;10.486;2023-02-01T15:10:48;2.20;99.90
38458;DHT22;24239;48.058;10.486;2023-02-01T15:13:19;2.20;99.90
38458;DHT22;24239;48.058;10.486;2023-02-01T15:15:45;2.10;99.90
38458;DHT22;24239;48.058;10.486;2023-02-01T15:18:24;2.30;99.90
38458;DHT22;24239;48.058;10.486;2023-02-01T15:23:36;2.40;99.90
38458;DHT22;24239;48.058;10.486;2023-02-01T15:26:04;2.30;99.90
38458;DHT22;24239;48.058;10.486;2023-02-01T15:28:30;2.40;99.90
38458;DHT22;24239;48.058;10.486;2023-02-01T15:30:59;2.40;99.90
38458;DHT22;24239;48.058;10.486;2023-02-01T15:33:26;2.50;99.90
38458;DHT22;24239;48.058;10.486;2023-02-01T15:35:53;2.50;99.90
38458;DHT22;24239;48.058;10.486;2023-02-01T15:43:27;2.70;99.90
38458;DHT22;24239;48.058;10.486;2023-02-01T15:45:57;2.70;99.90
38458;DHT22;24239;48.058;10.486;2023-02-01T15:48:23;2.80;99.90
38458;DHT22;24239;48.058;10.486;2023-02-01T15:50:50;2.80;99.90
38458;DHT22;24239;48.058;10.486;2023-02-01T15:53:20;2.80;99.90
38458;DHT22;24239;48.058;10.486;2023-02-01T15:55:46;2.90;99.90
38458;DHT22;24239;48.058;10.486;2023-02-01T15:58:17;2.90;99.90
38458;DHT22;24239;48.058;10.486;2023-02-01T16:10:59;2.90;99.90
38458;DHT22;24239;48.058;10.486;2023-02-01T16:13:29;3.00;99.90
38458;DHT22;24239;48.058;10.486;2023-02-01T16:15:55;3.00;99.90
38458;DHT22;24239;48.058;10.486;2023-02-01T16:18:20;3.00;99.90
38458;DHT22;24239;48.058;10.486;2023-02-01T16:20:47;3.10;99.90
38458;DHT22;24239;48.058;10.486;2023-02-01T16:23:13;3.00;99.90
38458;DHT22;24239;48.058;10.486;2023-02-01T16:25:39;3.10;99.90
38458;DHT22;24239;48.058;10.486;2023-02-01T16:28:04;3.20;99.90
38458;DHT22;24239;48.058;10.486;2023-02-01T16:30:31;3.00;99.90
38458;DHT22;24239;48.058;10.486;2023-02-01T16:32:57;3.00;99.90
38458;DHT22;24239;48.058;10.486;2023-02-01T16:35:26;3.00;99.90
38458;DHT22;24239;48.058;10.486;2023-02-01T16:37:52;3.00;99.90
38458;DHT22;24239;48.058;10.486;2023-02-01T16:40:18;3.00;99.90
38458;DHT22;24239;48.058;10.486;2023-02-01T16:42:45;3.10;99.90
38458;DHT22;24239;48.058;10.486;2023-02-01T16:45:12;3.00;99.90
38458;DHT22;24239;48.058;10.486;2023-02-01T16:47:38;3.00;99.90
38458;DHT22;24239;48.058;10.486;2023-02-01T16:50:05;3.00;99.90
38458;DHT22;24239;48.058;10.486;2023-02-01T16:52:39;3.00;99.90
38458;DHT22;24239;48.058;10.486;2023-02-01T16:55:11;3.00;99.90
38458;DHT22;24239;48.058;10.486;2023-02-01T16:57:37;3.00;99.90
38458;DHT22;24239;48.058;10.486;2023-02-01T17:00:03;3.00;99.90
38458;DHT22;24239;48.058;10.486;2023-02-01T17:02:32;3.10;99.90
38458;DHT22;24239;48.058;10.486;2023-02-01T17:04:57;3.00;99.90
38458;DHT22;24239;48.058;10.486;2023-02-01T17:07:23;3.10;99.90
38458;DHT22;24239;48.058;10.486;2023-02-01T17:09:49;3.10;99.90
38458;DHT22;24239;48.058;10.486;2023-02-01T17:12:19;3.10;99.90
38458;DHT22;24239;48.058;10.486;2023-02-01T17:14:46;3.10;99.90
38458;DHT22;24239;48.058;10.486;2023-02-01T17:17:12;3.20;99.90
38458;DHT22;24239;48.058;10.486;2023-02-01T17:19:38;3.20;99.90
38458;DHT22;24239;48.058;10.486;2023-02-01T17:22:03;3.10;99.90
38458;DHT22;24239;48.058;10.486;2023-02-01T17:24:29;3.10;99.90
38458;DHT22;24239;48.058;10.486;2023-02-01T17:26:58;3.10;99.90
38458;DHT22;24239;48.058;10.486;2023-02-01T17:29:24;3.20;99.90
38458;DHT22;24239;48.058;10.486;2023-02-01T17:31:53;3.20;99.90
38458;DHT22;24239;48.058;10.486;2023-02-01T17:34:20;3.20;99.90
38458;DHT22;24239;48.058;10.486;2023-02-01T17:36:46;3.10;99.90
38458;DHT22;24239;48.058;10.486;2023-02-01T17:39:13;3.30;99.90
38458;DHT22;24239;48.058;10.486;2023-02-01T17:41:59;3.20;99.90
38458;DHT22;24239;48.058;10.486;2023-02-01T17:44:24;3.20;99.90
38458;DHT22;24239;48.058;10.486;2023-02-01T17:46:50;3.10;99.90
38458;DHT22;24239;48.058;10.486;2023-02-01T17:49:16;3.10;99.90
38458;DHT22;24239;48.058;10.486;2023-02-01T17:51:46;3.10;99.90
38458;DHT22;24239;48.058;10.486;2023-02-01T17:54:15;3.10;99.90
38458;DHT22;24239;48.058;10.486;2023-02-01T17:56:44;3.20;99.90
38458;DHT22;24239;48.058;10.486;2023-02-01T17:59:10;3.20;99.90
38458;DHT22;24239;48.058;10.486;2023-02-01T18:01:36;3.20;99.90
38458;DHT22;24239;48.058;10.486;2023-02-01T18:04:02;3.20;99.90
38458;DHT22;24239;48.058;10.486;2023-02-01T18:06:31;3.30;99.90
38458;DHT22;24239;48.058;10.486;2023-02-01T18:08:58;3.20;99.90
38458;DHT22;24239;48.058;10.486;2023-02-01T18:11:24;3.20;99.90
38458;DHT22;24239;48.058;10.486;2023-02-01T18:13:50;3.40;99.90
38458;DHT22;24239;48.058;10.486;2023-02-01T18:16:24;3.20;99.90
38458;DHT22;24239;48.058;10.486;2023-02-01T18:18:50;3.20;99.90
38458;DHT22;24239;48.058;10.486;2023-02-01T18:21:20;3.20;99.90
38458;DHT22;24239;48.058;10.486;2023-02-01T18:23:46;3.20;99.90
38458;DHT22;24239;48.058;10.486;2023-02-01T18:26:13;3.20;99.90